Time;durP1;ratioP1;P1;durP2;ratioP2;P2;SDS_P1;SDS_P2;PMS_P1;PMS_P2;Temp;Humidity;BMP_temperature;BMP_pressure;BME280_temperature;BME280_humidity;BME280_pressure;Samples;Min_cycle;Max_cycle;Signal;HPM_P1;HPM_P2
2022/10/03 00:00:15;;;;;;;0.62;0.60;;;;;;;9.63;91.82;99121.94;1768455;80;21225;-58
2022/10/03 00:03:44;;;;;;;0.70;0.70;;;;;;;9.59;91.78;99113.84;1768574;80;21741;-58
2022/10/03 00:07:22;;;;;;;2.10;0.60;;;;;;;9.55;91.77;99107.92;1768182;81;21208;-58
2022/10/03 00:10:47;;;;;;;0.60;0.55;;;;;;;9.53;91.75;99105.91;1720120;82;21182;-58
2022/10/03 00:14:01;;;;;;;1.40;0.60;;;;;;;9.54;91.85;99104.88;1774276;79;21209;-59
2022/10/03 00:17:21;;;;;;;0.72;0.68;;;;;;;9.56;91.90;99108.23;1726788;82;21257;-57
2022/10/03 00:21:08;;;;;;;0.62;0.62;;;;;;;9.57;91.91;99109.09;1738032;81;21264;-58
2022/10/03 00:24:33;;;;;;;0.85;0.50;;;;;;;9.59;91.97;99105.64;1778860;79;21181;-58
2022/10/03 00:27:55;;;;;;;3.17;0.60;;;;;;;9.60;91.98;99105.44;1778610;80;21237;-58
2022/10/03 00:31:19;;;;;;;0.60;0.60;;;;;;;9.60;91.93;99099.98;1777517;80;21213;-57
2022/10/03 00:34:50;;;;;;;2.27;0.60;;;;;;;9.60;91.95;99095.88;1778741;79;21262;-58
2022/10/03 00:38:14;;;;;;;0.50;0.50;;;;;;;9.61;91.94;99098.09;1766373;80;21244;-57
2022/10/03 00:41:35;;;;;;;2.58;0.62;;;;;;;9.61;91.97;99103.56;1768490;80;21193;-58
2022/10/03 00:45:28;;;;;;;0.80;0.68;;;;;;;9.63;91.95;99089.16;1768349;80;21225;-58
2022/10/03 00:48:57;;;;;;;1.82;0.85;;;;;;;9.65;91.95;99098.86;1768366;80;21264;-58
2022/10/03 00:52:18;;;;;;;0.68;0.68;;;;;;;9.66;91.99;99095.58;1768459;81;21229;-58
2022/10/03 00:55:46;;;;;;;1.37;0.80;;;;;;;9.67;91.96;99091.28;1768852;80;21205;-58
2022/10/03 00:59:17;;;;;;;8.05;0.82;;;;;;;9.66;91.89;99088.75;1768519;80;21237;-56
2022/10/03 01:02:53;;;;;;;0.62;0.62;;;;;;;9.65;91.91;99094.75;1739176;79;21185;-56
2022/10/03 01:06:19;;;;;;;2.05;0.95;;;;;;;9.66;91.95;99091.48;1768552;80;21217;-58
2022/10/03 01:09:40;;;;;;;0.85;0.78;;;;;;;9.66;91.97;99090.97;1768537;80;21244;-58
2022/10/03 01:13:31;;;;;;;1.80;0.90;;;;;;;9.68;92.04;99094.86;1767520;80;21197;-56
2022/10/03 01:17:27;;;;;;;2.25;0.80;;;;;;;9.68;92.03;99092.98;1768449;81;21202;-58
2022/10/03 01:21:11;;;;;;;1.47;0.90;;;;;;;9.70;92.03;99099.61;1768852;80;21181;-59
2022/10/03 01:24:44;;;;;;;3.37;1.10;;;;;;;9.71;92.06;99098.55;1768419;80;21686;-59
2022/10/03 01:32:04;;;;;;;1.70;0.80;;;;;;;9.75;92.14;99101.22;1750537;80;21169;-57
2022/10/03 01:35:44;;;;;;;1.50;1.00;;;;;;;9.75;92.10;99104.78;1768631;80;21272;-58
2022/10/03 01:39:34;;;;;;;1.85;1.17;;;;;;;9.72;91.99;99109.83;1784735;79;21189;-57
2022/10/03 01:43:01;;;;;;;4.05;0.93;;;;;;;9.69;92.00;99117.88;1801382;79;21351;-55
2022/10/03 01:46:29;;;;;;;1.87;1.07;;;;;;;9.66;92.00;99118.29;1801419;79;21162;-57
2022/10/03 01:50:04;;;;;;;1.40;1.10;;;;;;;9.62;91.90;99117.02;1768462;80;21213;-55
2022/10/03 01:53:41;;;;;;;1.92;1.10;;;;;;;9.58;91.86;99120.33;1768902;80;21221;-57
2022/10/03 01:57:20;;;;;;;1.37;1.17;;;;;;;9.55;91.94;99128.41;1761528;80;21179;-57
2022/10/03 02:00:29;;;;;;;1.40;1.20;;;;;;;9.49;91.85;99131.95;1737302;80;21201;-57
2022/10/03 02:03:45;;;;;;;1.17;1.07;;;;;;;9.42;91.81;99126.95;1768732;80;21158;-58
2022/10/03 02:07:16;;;;;;;1.40;0.93;;;;;;;9.40;91.84;99128.20;1768774;80;21197;-57
2022/10/03 02:11:03;;;;;;;1.22;1.12;;;;;;;9.36;91.83;99130.48;1760464;80;21685;-58
2022/10/03 02:14:49;;;;;;;1.55;1.20;;;;;;;9.35;91.91;99126.07;1770274;80;21205;-57
2022/10/03 02:18:27;;;;;;;1.20;1.10;;;;;;;9.34;92.00;99125.73;1768810;80;21182;-59
2022/10/03 02:21:38;;;;;;;4.35;1.10;;;;;;;9.36;92.12;99130.98;1770942;80;21666;-58
2022/10/03 02:25:02;;;;;;;2.10;1.22;;;;;;;9.38;92.15;99133.86;1775777;80;21213;-58
2022/10/03 02:28:43;;;;;;;1.27;1.17;;;;;;;9.40;92.18;99143.22;1738625;82;21193;-57
2022/10/03 02:32:38;;;;;;;1.85;1.27;;;;;;;9.41;92.21;99139.44;1801596;79;21206;-58
2022/10/03 02:36:43;;;;;;;1.77;1.20;;;;;;;9.43;92.27;99142.83;1768630;80;21347;-57
2022/10/03 02:40:24;;;;;;;1.65;1.22;;;;;;;9.43;92.26;99149.14;1776987;79;21213;-57
2022/10/03 02:44:08;;;;;;;1.87;1.40;;;;;;;9.45;92.24;99146.20;1775856;79;21158;-58
2022/10/03 02:47:42;;;;;;;1.30;1.20;;;;;;;9.43;92.22;99145.55;1785811;79;21743;-57
2022/10/03 02:51:40;;;;;;;1.85;1.40;;;;;;;9.42;92.19;99151.53;1772501;78;21240;-58
2022/10/03 02:55:11;;;;;;;2.15;1.20;;;;;;;9.44;92.18;99159.52;1775682;78;21193;-58
2022/10/03 02:58:57;;;;;;;1.92;1.55;;;;;;;9.40;92.14;99156.36;1769020;80;21186;-58
2022/10/03 03:02:42;;;;;;;1.30;1.20;;;;;;;9.40;92.14;99157.73;1769711;80;21320;-57
2022/10/03 03:06:13;;;;;;;2.70;1.50;;;;;;;9.39;92.12;99156.02;1768594;80;21206;-58
2022/10/03 03:09:56;;;;;;;4.42;1.35;;;;;;;9.39;92.12;99156.56;1768708;80;21228;-58
2022/10/03 03:13:20;;;;;;;1.50;1.40;;;;;;;9.38;92.15;99161.17;1768468;80;21201;-57
2022/10/03 03:16:51;;;;;;;3.00;1.50;;;;;;;9.38;92.15;99161.17;1776267;79;21189;-57
2022/10/03 03:20:44;;;;;;;3.52;1.80;;;;;;;9.38;92.13;99169.37;1778099;79;21216;-58
2022/10/03 03:24:21;;;;;;;2.33;1.52;;;;;;;9.39;92.12;99175.14;1812618;78;21182;-57
2022/10/03 03:28:10;;;;;;;1.45;1.22;;;;;;;9.37;92.06;99181.31;1806314;79;21153;-59
2022/10/03 03:31:27;;;;;;;2.50;1.65;;;;;;;9.35;92.07;99184.78;1801428;79;21173;-58
2022/10/03 03:34:41;;;;;;;2.20;1.60;;;;;;;9.34;92.03;99182.25;1759724;80;21221;-59
2022/10/03 03:38:04;;;;;;;4.40;1.80;;;;;;;9.32;92.00;99185.18;1768459;80;21248;-59
2022/10/03 03:41:27;;;;;;;2.83;2.20;;;;;;;9.31;91.97;99184.84;1747085;80;21216;-58
2022/10/03 03:44:53;;;;;;;4.15;2.10;;;;;;;9.30;91.95;99180.43;1762204;80;21229;-59
2022/10/03 03:48:21;;;;;;;3.20;2.08;;;;;;;9.30;91.95;99187.77;1778807;79;21185;-61
2022/10/03 03:51:51;;;;;;;3.90;2.10;;;;;;;9.29;91.95;99189.67;1775528;80;21323;-58
2022/10/03 03:55:14;;;;;;;2.22;1.90;;;;;;;9.29;91.92;99193.77;1754551;80;21197;-59
2022/10/03 03:59:04;;;;;;;2.87;2.15;;;;;;;9.26;91.88;99194.14;1778862;80;21185;-60
2022/10/03 04:02:47;;;;;;;2.83;2.33;;;;;;;9.25;91.86;99204.74;1770585;81;21173;-60
2022/10/03 04:06:07;;;;;;;4.37;2.65;;;;;;;9.22;91.82;99201.05;1778943;80;21248;-59
2022/10/03 04:09:49;;;;;;;3.77;2.60;;;;;;;9.21;91.80;99202.09;1778821;79;21232;-58
2022/10/03 04:13:33;;;;;;;3.37;2.20;;;;;;;9.20;91.75;99203.66;1778300;80;21209;-61
2022/10/03 04:20:35;;;;;;;3.80;3.02;;;;;;;9.16;91.80;99209.17;1773185;79;21189;-60
2022/10/03 04:23:59;;;;;;;3.83;2.90;;;;;;;9.18;91.85;99209.28;1779085;79;21217;-58
2022/10/03 04:27:33;;;;;;;3.60;2.72;;;;;;;9.19;91.88;99221.92;1772900;80;21319;-59
2022/10/03 04:31:02;;;;;;;5.20;3.22;;;;;;;9.21;91.91;99218.48;1778904;79;21244;-59
2022/10/03 04:34:40;;;;;;;5.35;3.50;;;;;;;9.24;91.94;99220.81;1778496;79;21240;-58
2022/10/03 04:38:25;;;;;;;4.62;3.17;;;;;;;9.26;91.94;99219.25;1778631;80;21240;-60
2022/10/03 04:41:41;;;;;;;4.15;3.08;;;;;;;9.27;91.95;99220.42;1787865;80;21220;-59
2022/10/03 04:45:21;;;;;;;3.72;2.80;;;;;;;9.29;91.92;99230.63;1787174;78;21204;-59
2022/10/03 04:48:53;;;;;;;3.65;2.65;;;;;;;9.31;91.93;99232.63;1781209;80;21231;-60
2022/10/03 04:52:15;;;;;;;3.58;2.80;;;;;;;9.35;91.95;99229.84;1773220;81;21188;-59
2022/10/03 04:55:52;;;;;;;;;;;;;;;9.37;91.94;99230.47;1811686;78;21741;-59
2022/10/03 04:59:27;;;;;;;4.42;3.25;;;;;;;9.39;91.95;99237.95;1773674;79;20245;-59
2022/10/03 05:03:21;;;;;;;4.47;3.62;;;;;;;9.42;92.00;99234.83;1806086;79;21630;-63
2022/10/03 05:07:00;;;;;;;10.05;5.67;;;;;;;9.48;92.05;99238.67;1768050;79;21735;-61
2022/10/03 05:10:14;;;;;;;4.90;3.70;;;;;;;9.53;92.07;99249.86;1773887;79;21202;-61
2022/10/03 05:13:50;;;;;;;5.10;3.85;;;;;;;9.59;92.12;99255.90;1747483;81;21314;-61
2022/10/03 05:17:10;;;;;;;8.15;3.95;;;;;;;9.61;92.05;99257.92;1766051;80;21193;-61
2022/10/03 05:20:54;;;;;;;6.67;3.80;;;;;;;9.65;92.07;99251.00;1744604;80;21213;-61
2022/10/03 05:24:21;;;;;;;7.30;5.35;;;;;;;9.71;92.14;99256.53;1760909;80;21205;-62
2022/10/03 05:27:53;;;;;;;3.85;3.15;;;;;;;9.81;92.19;99259.77;1755086;81;21169;-60
2022/10/03 05:31:32;;;;;;;5.37;3.75;;;;;;;9.90;92.18;99272.75;1767329;79;21232;-59
2022/10/03 05:35:05;;;;;;;4.28;3.37;;;;;;;9.94;92.15;99268.05;1770851;79;21598;-60
2022/10/03 05:38:33;;;;;;;14.50;10.65;;;;;;;10.02;92.16;99270.63;1742244;81;21290;-61
2022/10/03 05:41:47;;;;;;;9.18;6.47;;;;;;;10.09;92.14;99266.61;1761724;79;21690;-57
2022/10/03 05:45:05;;;;;;;8.15;4.15;;;;;;;10.18;92.12;99266.80;1716701;82;21595;-58
2022/10/03 05:48:51;;;;;;;27.93;17.92;;;;;;;10.26;92.08;99266.61;1777472;79;21222;-58
2022/10/03 05:52:44;;;;;;;7.28;4.75;;;;;;;10.32;92.03;99274.86;1765632;81;21773;-60
2022/10/03 05:56:11;;;;;;;5.40;3.62;;;;;;;10.39;92.06;99277.64;1730476;82;21252;-60
2022/10/03 05:59:59;;;;;;;4.37;3.52;;;;;;;10.48;92.04;99283.30;1715255;82;21232;-58
2022/10/03 06:03:24;;;;;;;4.70;3.58;;;;;;;10.52;91.99;99293.63;1762668;80;21211;-59
2022/10/03 06:06:41;;;;;;;;;;;;;;;10.53;91.90;99294.45;1753633;80;21196;-60
2022/10/03 06:09:51;;;;;;;6.10;3.45;;;;;;;10.54;91.90;99298.34;1749213;81;20216;-60
2022/10/03 06:13:05;;;;;;;4.92;3.42;;;;;;;10.61;91.98;99300.30;1749829;81;21235;-59
2022/10/03 06:16:37;;;;;;;4.25;3.33;;;;;;;10.70;91.98;99304.55;1743516;81;21200;-59
2022/10/03 06:20:09;;;;;;;5.05;3.35;;;;;;;10.80;91.93;99303.67;1765082;79;21746;-59
2022/10/03 06:24:04;;;;;;;5.80;4.47;;;;;;;10.92;91.87;99302.02;1761301;81;21780;-58
2022/10/03 06:27:54;;;;;;;8.23;5.47;;;;;;;11.05;91.80;99306.19;1748204;80;21275;-60
2022/10/03 06:31:32;;;;;;;16.30;11.20;;;;;;;11.14;91.59;99304.95;1757114;80;21207;-59
2022/10/03 06:35:14;;;;;;;8.05;6.25;;;;;;;11.09;91.37;99308.31;1735166;80;21766;-59
